Time;durP1;ratioP1;P1;durP2;ratioP2;P2;SDS_P1;SDS_P2;PMS_P1;PMS_P2;Temp;Humidity;BMP_temperature;BMP_pressure;BME280_temperature;BME280_humidity;BME280_pressure;Samples;Min_cycle;Max_cycle;Signal;HPM_P1;HPM_P2
2021/09/06 00:01:06;;;;;;;1.67;1.52;;;;;;;7.77;68.02;100311.09;5134931;27;20027;-66
2021/09/06 00:03:32;;;;;;;2.35;1.65;;;;;;;7.79;68.81;100313.66;5133822;27;20367;-66
2021/09/06 00:05:58;;;;;;;2.38;1.85;;;;;;;7.80;68.28;100318.91;5134093;27;20086;-66
2021/09/06 00:08:24;;;;;;;2.40;1.45;;;;;;;7.81;68.01;100312.63;5134528;27;20080;-66
2021/09/06 00:11:06;;;;;;;5.18;1.63;;;;;;;7.81;67.88;100296.63;5133876;27;20468;-66
2021/09/06 00:13:33;;;;;;;2.40;1.67;;;;;;;7.86;67.64;100307.88;5114974;27;20064;-66
2021/09/06 00:15:59;;;;;;;2.17;1.75;;;;;;;7.81;67.54;100296.63;5133992;27;20039;-66
2021/09/06 00:18:25;;;;;;;1.80;1.42;;;;;;;7.70;67.34;100280.44;5116207;27;20507;-66
2021/09/06 00:20:52;;;;;;;3.33;1.40;;;;;;;7.90;66.85;100312.06;5113062;28;20050;-66
2021/09/06 00:23:18;;;;;;;1.55;1.30;;;;;;;7.83;67.84;100304.53;5112916;28;20034;-64
2021/09/06 00:25:44;;;;;;;2.72;1.50;;;;;;;7.90;67.21;100306.72;5113029;28;20035;-64
2021/09/06 00:28:09;;;;;;;3.03;1.95;;;;;;;7.89;67.35;100304.16;5114332;27;20489;-65
2021/09/06 00:30:35;;;;;;;2.00;1.60;;;;;;;7.90;67.09;100308.53;5112907;28;20456;-66
2021/09/06 00:33:00;;;;;;;2.53;1.50;;;;;;;7.90;67.14;100308.53;5111772;28;20038;-67
2021/09/06 00:35:26;;;;;;;2.55;1.30;;;;;;;7.90;66.97;100309.38;5112809;28;20092;-65
2021/09/06 00:37:52;;;;;;;1.60;1.25;;;;;;;7.90;67.06;100306.72;5113715;27;20440;-64
2021/09/06 00:40:17;;;;;;;3.42;1.70;;;;;;;7.92;66.92;100309.31;5112679;28;20043;-65
2021/09/06 00:42:43;;;;;;;3.40;1.40;;;;;;;7.93;66.96;100307.47;5112474;28;20024;-65
2021/09/06 00:45:09;;;;;;;3.47;1.50;;;;;;;7.91;66.60;100307.59;5112455;28;20027;-65
2021/09/06 00:47:36;;;;;;;2.30;1.40;;;;;;;7.91;67.36;100310.25;5112313;28;20024;-66
2021/09/06 00:50:06;;;;;;;2.55;1.60;;;;;;;7.88;67.30;100311.28;5113347;27;20148;-66
2021/09/06 00:52:33;;;;;;;1.83;1.48;;;;;;;7.88;66.99;100307.78;5112139;28;20955;-66
2021/09/06 00:54:59;;;;;;;2.40;1.50;;;;;;;7.88;67.04;100305.97;5112270;28;20047;-66
2021/09/06 00:57:25;;;;;;;1.73;1.33;;;;;;;7.85;66.74;100314.16;5112512;28;20441;-66
2021/09/06 00:59:50;;;;;;;2.08;1.58;;;;;;;7.79;66.93;100309.22;5112433;27;20039;-66
2021/09/06 01:02:16;;;;;;;3.85;1.55;;;;;;;7.71;66.96;100309.66;5112023;28;20031;-66
2021/09/06 01:04:42;;;;;;;1.75;1.50;;;;;;;7.53;67.45;100297.44;5126670;27;20019;-67
2021/09/06 01:07:08;;;;;;;1.55;1.30;;;;;;;7.40;67.59;100297.34;5132858;27;20023;-66
2021/09/06 01:09:34;;;;;;;2.53;1.23;;;;;;;7.35;68.06;100302.09;5132581;27;20043;-66
2021/09/06 01:12:00;;;;;;;4.35;1.58;;;;;;;7.26;68.24;100312.34;5132519;27;20031;-66
2021/09/06 01:14:26;;;;;;;2.05;1.40;;;;;;;7.17;68.63;100303.09;5131271;27;20038;-67
2021/09/06 01:16:52;;;;;;;2.42;1.45;;;;;;;7.08;69.66;100305.44;5132847;27;20129;-65
2021/09/06 01:19:17;;;;;;;1.50;1.10;;;;;;;6.99;69.58;100299.72;5132403;27;20494;-66
2021/09/06 01:21:43;;;;;;;1.60;1.40;;;;;;;7.01;69.51;100311.13;5132598;27;20060;-65
2021/09/06 01:24:08;;;;;;;3.28;1.48;;;;;;;6.97;69.54;100322.88;5131097;27;20126;-65
2021/09/06 01:26:34;;;;;;;2.85;1.50;;;;;;;6.96;69.79;100326.47;5112058;28;20472;-66
2021/09/06 01:28:59;;;;;;;1.98;1.38;;;;;;;6.93;69.34;100321.34;5111707;28;20106;-65
2021/09/06 01:31:25;;;;;;;1.80;1.17;;;;;;;6.91;69.72;100322.38;5111814;28;20027;-65
2021/09/06 01:33:50;;;;;;;4.00;1.38;;;;;;;6.65;69.32;100280.34;5129239;27;20031;-66
2021/09/06 01:36:16;;;;;;;1.80;1.38;;;;;;;6.85;69.50;100315.59;5129716;27;20484;-65
2021/09/06 01:38:41;;;;;;;3.47;1.60;;;;;;;6.81;69.82;100314.06;5130651;27;20023;-65
2021/09/06 01:41:06;;;;;;;2.05;1.40;;;;;;;6.82;69.65;100323.78;5130782;27;20031;-66
2021/09/06 01:43:32;;;;;;;2.00;1.20;;;;;;;6.80;69.88;100341.63;5131231;27;20031;-65
2021/09/06 01:45:57;;;;;;;3.10;1.38;;;;;;;6.66;69.88;100310.47;5130872;27;20053;-66
2021/09/06 01:48:23;;;;;;;1.85;1.40;;;;;;;6.67;69.75;100334.31;5131281;27;20415;-65
2021/09/06 01:50:48;;;;;;;2.53;1.30;;;;;;;6.59;69.92;100332.09;5130536;27;20031;-66
2021/09/06 01:53:14;;;;;;;1.92;1.40;;;;;;;6.30;70.34;100296.50;5131363;27;20460;-64
2021/09/06 01:55:39;;;;;;;3.70;1.50;;;;;;;6.46;70.30;100329.25;5129919;27;20057;-64
2021/09/06 01:58:05;;;;;;;2.22;1.52;;;;;;;6.35;70.57;100326.34;5111240;28;20046;-65
2021/09/06 02:00:30;;;;;;;1.92;1.50;;;;;;;6.30;70.73;100325.75;5109904;28;20453;-64
2021/09/06 02:02:55;;;;;;;1.83;1.40;;;;;;;6.29;71.11;100334.66;5111650;28;20392;-66
2021/09/06 02:05:21;;;;;;;2.97;1.52;;;;;;;6.28;71.60;100340.94;5111157;28;20070;-66
2021/09/06 02:07:46;;;;;;;3.15;1.52;;;;;;;6.29;71.95;100337.31;5127283;27;20019;-66
2021/09/06 02:10:12;;;;;;;2.47;1.70;;;;;;;6.27;71.70;100333.84;5131972;27;20126;-64
2021/09/06 02:12:37;;;;;;;2.90;1.77;;;;;;;6.27;72.08;100340.06;5131670;27;20031;-64
2021/09/06 02:15:03;;;;;;;4.07;1.70;;;;;;;6.19;72.36;100336.97;5131940;27;20019;-66
2021/09/06 02:17:29;;;;;;;3.38;1.50;;;;;;;6.20;72.36;100332.47;5130798;27;20042;-65
2021/09/06 02:19:56;;;;;;;2.28;1.77;;;;;;;6.23;72.41;100340.28;5134196;27;20035;-64
2021/09/06 02:22:22;;;;;;;2.38;1.80;;;;;;;6.21;72.49;100345.72;5141460;27;20034;-64
2021/09/06 02:24:47;;;;;;;2.72;1.88;;;;;;;6.17;72.46;100344.16;5138014;27;20051;-65
2021/09/06 02:27:13;;;;;;;4.95;1.80;;;;;;;6.17;72.67;100334.38;5118838;27;20039;-66
2021/09/06 02:29:38;;;;;;;3.55;1.77;;;;;;;6.12;72.89;100335.56;5111175;28;20404;-65
2021/09/06 02:32:04;;;;;;;5.78;2.15;;;;;;;6.11;73.09;100340.03;5110949;28;20135;-66
2021/09/06 02:34:29;;;;;;;2.42;1.63;;;;;;;6.08;73.07;100342.84;5111140;28;20031;-65
2021/09/06 02:36:55;;;;;;;2.85;2.13;;;;;;;6.08;73.33;100349.97;5112397;28;20024;-64
2021/09/06 02:39:20;;;;;;;2.50;1.80;;;;;;;6.01;73.46;100350.28;5110581;28;20047;-65
2021/09/06 02:41:46;;;;;;;2.72;1.67;;;;;;;5.99;73.37;100349.47;5111148;28;20115;-65
2021/09/06 02:44:11;;;;;;;2.05;1.60;;;;;;;5.94;73.42;100353.31;5110263;28;20024;-66
2021/09/06 02:46:37;;;;;;;2.95;1.58;;;;;;;5.88;74.09;100350.06;5119853;27;20096;-66
2021/09/06 02:49:02;;;;;;;3.08;1.80;;;;;;;5.87;73.55;100361.63;5129124;27;20038;-65
2021/09/06 02:51:28;;;;;;;4.10;2.03;;;;;;;5.68;74.37;100336.94;5129509;27;20481;-64
2021/09/06 02:53:53;;;;;;;2.85;1.33;;;;;;;5.79;74.58;100361.19;5128200;28;20023;-65
2021/09/06 02:56:19;;;;;;;4.60;1.85;;;;;;;5.82;74.59;100362.78;5127217;27;20027;-67
2021/09/06 02:58:44;;;;;;;4.05;1.65;;;;;;;5.79;74.85;100355.88;5129400;27;20038;-65
2021/09/06 03:01:10;;;;;;;2.40;1.83;;;;;;;5.81;74.64;100364.59;5129592;27;20035;-66
2021/09/06 03:03:35;;;;;;;2.88;1.55;;;;;;;5.81;74.65;100369.94;5129221;27;20019;-66
2021/09/06 03:06:01;;;;;;;5.50;1.88;;;;;;;5.80;75.17;100365.56;5122194;27;20081;-66
2021/09/06 03:08:26;;;;;;;3.90;1.73;;;;;;;5.79;75.00;100368.28;5110856;28;20103;-66
2021/09/06 03:10:51;;;;;;;4.07;1.73;;;;;;;5.81;74.68;100375.25;5111261;28;20035;-67
2021/09/06 03:13:18;;;;;;;2.90;1.95;;;;;;;5.82;74.92;100378.75;5110998;28;20023;-66
2021/09/06 03:15:43;;;;;;;3.42;1.90;;;;;;;5.75;75.40;100365.78;5111444;28;20024;-66
2021/09/06 03:18:09;;;;;;;3.63;1.80;;;;;;;5.86;75.29;100367.88;5110938;28;20032;-65
2021/09/06 03:20:34;;;;;;;4.00;2.05;;;;;;;5.95;75.73;100376.31;5110950;28;20036;-66
2021/09/06 03:23:00;;;;;;;5.38;2.30;;;;;;;6.27;76.17;100392.38;5112464;28;20464;-66
2021/09/06 03:25:25;;;;;;;4.32;2.08;;;;;;;7.06;74.55;100395.19;5118982;27;20113;-66
2021/09/06 03:27:52;;;;;;;3.95;2.30;;;;;;;8.03;70.18;100385.97;5135054;27;20043;-66
2021/09/06 03:30:17;;;;;;;4.97;1.95;;;;;;;9.00;65.97;100381.72;5135251;27;20039;-65
2021/09/06 03:32:43;;;;;;;4.18;1.75;;;;;;;10.09;62.17;100382.47;5134856;27;20472;-65
2021/09/06 03:35:11;;;;;;;3.08;1.88;;;;;;;11.01;58.28;100384.91;5134507;27;20116;-66
2021/09/06 03:37:36;;;;;;;3.90;1.70;;;;;;;11.95;55.55;100381.50;5131174;27;20122;-66
2021/09/06 03:40:02;;;;;;;2.75;1.77;;;;;;;12.80;53.21;100384.72;5134816;27;20098;-67
2021/09/06 03:42:28;;;;;;;5.63;1.75;;;;;;;13.59;50.75;100386.34;5134953;27;20024;-66
2021/09/06 03:44:53;;;;;;;4.72;1.90;;;;;;;14.30;48.88;100387.47;5131907;27;20034;-66
2021/09/06 03:47:19;;;;;;;4.05;1.60;;;;;;;14.97;46.92;100388.88;5112775;28;20040;-66
2021/09/06 03:49:44;;;;;;;4.35;1.67;;;;;;;15.53;45.16;100384.66;5114104;28;20441;-65
2021/09/06 03:52:10;;;;;;;9.48;1.98;;;;;;;16.13;43.75;100380.06;5114073;27;20425;-66
2021/09/06 03:54:35;;;;;;;11.43;2.40;;;;;;;16.72;42.27;100371.69;5113749;28;20028;-67
2021/09/06 03:57:00;;;;;;;9.73;1.70;;;;;;;17.29;40.85;100387.75;5115245;27;20028;-67
2021/09/06 03:59:26;;;;;;;11.05;1.90;;;;;;;17.75;39.67;100387.66;5134642;27;20096;-67
2021/09/06 04:01:51;;;;;;;8.15;1.67;;;;;;;18.22;38.54;100391.88;5133374;27;20031;-67
2021/09/06 04:04:17;;;;;;;2.50;1.55;;;;;;;18.72;37.43;100386.72;5134107;27;20429;-67
2021/09/06 04:06:42;;;;;;;5.35;1.73;;;;;;;19.26;36.24;100401.81;5113845;27;20386;-68
2021/09/06 04:09:08;;;;;;;5.85;1.50;;;;;;;19.70;35.21;100386.25;5113544;28;20024;-67
2021/09/06 04:11:33;;;;;;;1.98;1.73;;;;;;;20.23;34.13;100389.44;5112344;28;20024;-67
2021/09/06 04:13:59;;;;;;;5.55;1.60;;;;;;;20.56;33.20;100369.47;5113129;28;20028;-67
2021/09/06 04:16:24;;;;;;;5.07;1.67;;;;;;;20.99;32.54;100364.53;5114176;27;20038;-67
2021/09/06 04:18:49;;;;;;;2.75;1.40;;;;;;;21.68;31.56;100384.66;5113602;28;20036;-66
2021/09/06 04:21:15;;;;;;;3.25;1.60;;;;;;;22.15;30.21;100385.38;5113041;28;20388;-67
2021/09/06 04:23:42;;;;;;;4.82;1.83;;;;;;;22.50;29.48;100343.94;5113122;28;20079;-65
2021/09/06 04:26:08;;;;;;;6.03;2.08;;;;;;;23.27;28.29;100393.59;5112875;27;20046;-66
2021/09/06 04:28:34;;;;;;;5.05;2.40;;;;;;;23.79;27.48;100398.94;5113031;28;20023;-67
2021/09/06 04:30:59;;;;;;;4.47;2.13;;;;;;;24.32;26.15;100386.72;5112925;28;20054;-65
2021/09/06 04:33:24;;;;;;;2.17;1.98;;;;;;;24.61;25.58;100363.72;5113151;28;20035;-67
2021/09/06 04:35:51;;;;;;;6.07;2.13;;;;;;;25.07;24.88;100397.00;5112992;28;20063;-67
2021/09/06 04:38:17;;;;;;;3.40;1.85;;;;;;;25.30;24.14;100344.56;5113865;27;20055;-66
2021/09/06 04:40:42;;;;;;;2.70;2.13;;;;;;;25.93;23.29;100357.03;5112927;28;20496;-65
2021/09/06 04:43:09;;;;;;;4.80;2.17;;;;;;;26.59;22.29;100397.47;5112761;28;20077;-67
2021/09/06 04:45:34;;;;;;;5.32;1.80;;;;;;;27.00;21.72;100388.03;5112738;28;20028;-67
2021/09/06 04:47:59;;;;;;;9.27;2.10;;;;;;;27.30;21.39;100395.69;5114131;27;20110;-66
2021/09/06 04:50:25;;;;;;;5.55;2.00;;;;;;;27.58;20.99;100366.97;5112940;28;20027;-68
2021/09/06 04:52:53;;;;;;;2.17;1.90;;;;;;;28.26;20.26;100402.19;5112585;28;20465;-65
2021/09/06 04:55:19;;;;;;;4.13;1.98;;;;;;;28.65;19.76;100400.91;5112823;28;20350;-65
2021/09/06 04:57:45;;;;;;;3.90;1.90;;;;;;;28.82;19.55;100360.88;5114064;27;20065;-65
2021/09/06 05:00:11;;;;;;;4.43;2.10;;;;;;;29.55;18.95;100383.81;5112411;27;20038;-65
2021/09/06 05:02:36;;;;;;;3.65;1.90;;;;;;;30.23;17.73;100391.78;5110941;28;20065;-65
2021/09/06 05:05:03;;;;;;;2.25;1.70;;;;;;;30.55;17.56;100388.66;5112845;28;20094;-66
2021/09/06 05:07:28;;;;;;;4.10;1.63;;;;;;;30.86;17.41;100389.31;5112223;28;20414;-67
2021/09/06 05:09:53;;;;;;;5.20;1.83;;;;;;;31.24;16.72;100394.47;5111824;27;20032;-65
2021/09/06 05:12:19;;;;;;;3.08;2.00;;;;;;;31.64;16.48;100390.75;5111934;28;20028;-66
2021/09/06 05:14:44;;;;;;;2.83;1.77;;;;;;;32.00;16.38;100399.66;5111072;28;20046;-65
2021/09/06 05:17:10;;;;;;;2.80;1.70;;;;;;;32.41;15.58;100396.69;5112397;28;20457;-65
2021/09/06 05:19:35;;;;;;;2.65;1.83;;;;;;;32.87;15.00;100396.41;5111535;27;20421;-65
2021/09/06 05:22:01;;;;;;;5.53;1.73;;;;;;;33.21;14.79;100390.72;5110749;28;20111;-66
2021/09/06 05:24:26;;;;;;;6.32;1.85;;;;;;;33.55;14.65;100395.25;5112618;28;20051;-66
2021/09/06 05:26:52;;;;;;;3.70;1.70;;;;;;;33.86;13.93;100384.38;5112305;27;20070;-68
2021/09/06 05:29:17;;;;;;;5.82;1.70;;;;;;;34.27;13.81;100371.88;5113368;27;20116;-66
2021/09/06 05:31:43;;;;;;;2.33;1.55;;;;;;;34.64;13.34;100387.63;5143113;27;20030;-66
2021/09/06 05:34:08;;;;;;;5.57;1.98;;;;;;;35.08;13.01;100396.72;5126998;27;20430;-66
2021/09/06 05:36:34;;;;;;;2.83;1.75;;;;;;;35.44;12.50;100399.53;5141490;27;20160;-66
2021/09/06 05:38:59;;;;;;;2.80;1.90;;;;;;;35.61;12.25;100394.56;5145407;27;20417;-66
2021/09/06 05:41:25;;;;;;;2.45;1.80;;;;;;;35.87;12.43;100390.94;5133469;27;20035;-65
2021/09/06 05:43:51;;;;;;;5.20;1.70;;;;;;;36.24;12.02;100392.56;5147421;27;20030;-65
2021/09/06 05:46:16;;;;;;;6.60;1.85;;;;;;;36.89;10.99;100402.94;5140887;27;20027;-68
2021/09/06 05:48:41;;;;;;;2.90;1.67;;;;;;;37.15;11.02;100405.59;5138428;27;20770;-67
2021/09/06 05:51:07;;;;;;;4.32;1.98;;;;;;;37.10;11.15;100410.38;5130799;27;20087;-66
2021/09/06 05:53:32;;;;;;;4.60;2.00;;;;;;;37.34;10.44;100402.94;5135658;27;20105;-66
2021/09/06 05:55:58;;;;;;;4.18;2.13;;;;;;;37.68;10.29;100406.09;5133038;27;20437;-68
2021/09/06 05:58:23;;;;;;;2.53;1.92;;;;;;;38.06;10.32;100403.50;5133329;27;20037;-68
2021/09/06 06:00:49;;;;;;;8.05;2.10;;;;;;;38.21;10.34;100382.94;5131838;27;20429;-68
2021/09/06 06:03:14;;;;;;;5.05;1.90;;;;;;;38.67;9.41;100412.34;5131278;27;20473;-67
2021/09/06 06:05:40;;;;;;;2.00;1.70;;;;;;;39.03;9.24;100409.06;5125693;27;20019;-65
2021/09/06 06:08:05;;;;;;;3.72;1.73;;;;;;;39.10;9.33;100416.28;5130242;27;20106;-64
2021/09/06 06:10:31;;;;;;;2.35;1.88;;;;;;;39.55;8.58;100413.94;5126844;27;20388;-67
2021/09/06 06:12:56;;;;;;;2.95;1.65;;;;;;;39.99;8.01;100414.59;5126987;27;20030;-67
2021/09/06 06:15:22;;;;;;;3.38;1.90;;;;;;;39.80;8.31;100414.63;5128463;27;20416;-67
2021/09/06 06:17:47;;;;;;;3.40;1.63;;;;;;;39.93;8.41;100417.78;5129536;28;20027;-67
2021/09/06 06:20:13;;;;;;;3.25;1.83;;;;;;;40.23;7.91;100404.31;5131186;28;20033;-66
2021/09/06 06:22:38;;;;;;;1.73;1.55;;;;;;;40.35;7.94;100415.91;5129530;27;20023;-67
2021/09/06 06:25:05;;;;;;;4.20;1.73;;;;;;;40.77;7.62;100417.91;5131640;27;20065;-63
2021/09/06 06:27:30;;;;;;;2.97;1.90;;;;;;;41.29;7.33;100417.56;5131171;27;20023;-66
2021/09/06 06:29:56;;;;;;;6.50;2.40;;;;;;;41.31;7.31;100418.91;5131389;27;20058;-64
2021/09/06 06:32:21;;;;;;;2.42;1.80;;;;;;;41.39;7.57;100406.09;5128740;28;20376;-66
2021/09/06 06:34:46;;;;;;;2.30;2.10;;;;;;;41.39;7.56;100417.31;5129747;28;20035;-63
2021/09/06 06:37:12;;;;;;;4.20;2.15;;;;;;;41.96;7.10;100409.41;5131473;27;20035;-64
2021/09/06 06:39:38;;;;;;;4.30;1.98;;;;;;;42.26;6.90;100409.78;5129221;27;20547;-64
2021/09/06 06:42:03;;;;;;;5.00;1.55;;;;;;;42.45;6.40;100404.75;5131345;27;20028;-64
2021/09/06 06:44:29;;;;;;;2.20;2.00;;;;;;;42.59;6.16;100407.44;5130317;27;20054;-71
2021/09/06 06:46:54;;;;;;;2.83;1.73;;;;;;;42.83;6.26;100413.75;5130422;28;20472;-64
2021/09/06 06:49:20;;;;;;;3.45;1.90;;;;;;;43.00;6.03;100405.34;5129564;28;20034;-62
2021/09/06 06:51:45;;;;;;;2.80;2.03;;;;;;;43.21;6.02;100410.34;5131470;28;20035;-63
2021/09/06 06:54:11;;;;;;;4.07;2.00;;;;;;;43.61;5.60;100412.13;5120541;27;20040;-64
2021/09/06 06:56:37;;;;;;;3.15;1.80;;;;;;;43.68;5.13;100406.00;5111539;28;20035;-63
2021/09/06 06:59:02;;;;;;;4.40;1.80;;;;;;;44.22;5.48;100408.34;5115150;28;20024;-65
2021/09/06 07:01:28;;;;;;;5.18;2.00;;;;;;;44.36;5.57;100412.94;5115390;28;20219;-64
2021/09/06 07:03:53;;;;;;;3.55;1.90;;;;;;;44.48;5.26;100409.38;5115890;27;20536;-63
2021/09/06 07:06:19;;;;;;;2.95;1.80;;;;;;;41.54;5.78;100413.28;5115173;27;20027;-63
2021/09/06 07:08:44;;;;;;;1.75;1.65;;;;;;;40.17;6.64;100404.44;5096373;28;20032;-65
2021/09/06 07:11:10;;;;;;;1.60;1.50;;;;;;;40.80;5.99;100408.84;5115293;28;20476;-63
2021/09/06 07:13:35;;;;;;;2.75;1.58;;;;;;;42.01;5.36;100412.94;5114831;28;20051;-64
2021/09/06 07:16:01;;;;;;;3.38;1.60;;;;;;;42.65;5.23;100410.91;5115509;27;20026;-70
2021/09/06 07:18:26;;;;;;;2.25;1.50;;;;;;;43.33;4.99;100406.88;5113776;28;20028;-63
2021/09/06 07:20:52;;;;;;;2.53;1.65;;;;;;;42.78;5.40;100385.75;5114801;28;20023;-63
2021/09/06 07:23:18;;;;;;;1.77;1.40;;;;;;;40.15;6.11;100406.72;5113194;28;20106;-62
2021/09/06 07:25:43;;;;;;;2.25;1.50;;;;;;;36.81;8.01;100416.66;5115067;27;20051;-67
2021/09/06 07:28:08;;;;;;;1.50;1.40;;;;;;;34.02;9.73;100406.75;5113072;28;20161;-63
2021/09/06 07:30:34;;;;;;;2.38;1.40;;;;;;;31.09;12.12;100390.31;5113474;28;20063;-64
2021/09/06 07:33:02;;;;;;;4.00;1.50;;;;;;;31.85;11.68;100419.66;5115038;28;20036;-63
2021/09/06 07:35:28;;;;;;;5.63;1.60;;;;;;;30.20;13.38;100387.63;5115656;27;20068;-62
2021/09/06 07:37:53;;;;;;;2.40;1.58;;;;;;;30.09;13.60;100407.78;5115913;28;20027;-62
2021/09/06 07:40:19;;;;;;;3.20;1.50;;;;;;;31.84;12.19;100408.81;5120120;28;20085;-63
2021/09/06 07:42:46;;;;;;;2.83;1.40;;;;;;;31.27;12.15;100414.16;5118502;28;20028;-63
2021/09/06 07:45:12;;;;;;;3.30;1.45;;;;;;;29.18;13.91;100417.84;5114234;28;20468;-64
2021/09/06 07:47:38;;;;;;;3.72;1.50;;;;;;;27.36;16.03;100392.06;5114884;27;20086;-63
2021/09/06 07:50:06;;;;;;;2.35;1.45;;;;;;;25.80;16.81;100417.38;5112906;28;20032;-68
2021/09/06 07:52:31;;;;;;;4.05;1.50;;;;;;;23.94;19.01;100427.03;5132248;27;20337;-64
2021/09/06 07:54:57;;;;;;;3.08;1.45;;;;;;;22.51;20.29;100428.34;5134048;27;20453;-63
2021/09/06 07:57:22;;;;;;;5.82;1.40;;;;;;;21.50;22.07;100444.88;5123590;27;20766;-63
2021/09/06 07:59:48;;;;;;;2.88;1.30;;;;;;;20.67;23.68;100425.34;5119015;27;20071;-65
2021/09/06 08:02:13;;;;;;;3.35;1.40;;;;;;;19.83;24.02;100435.50;5133082;27;20110;-63
2021/09/06 08:04:39;;;;;;;2.60;1.63;;;;;;;19.40;25.26;100440.19;5143322;27;20027;-63
2021/09/06 08:07:05;;;;;;;4.07;1.63;;;;;;;19.17;24.92;100441.69;5132574;27;20540;-63
2021/09/06 08:09:31;;;;;;;2.40;1.70;;;;;;;19.08;26.00;100443.53;5125295;27;20038;-63
2021/09/06 08:11:56;;;;;;;1.77;1.15;;;;;;;19.13;24.42;100434.03;5126345;27;20389;-63
2021/09/06 08:14:23;;;;;;;2.97;1.50;;;;;;;19.00;25.14;100435.34;5143018;27;20027;-63
2021/09/06 08:16:49;;;;;;;4.57;1.52;;;;;;;18.74;25.49;100425.38;5147161;27;20076;-62
2021/09/06 08:19:14;;;;;;;3.78;1.30;;;;;;;18.76;25.26;100439.63;5133312;27;20050;-62
2021/09/06 08:21:40;;;;;;;2.25;1.25;;;;;;;18.95;25.53;100434.94;5147673;27;20031;-64
2021/09/06 08:24:06;;;;;;;4.10;1.55;;;;;;;19.07;25.85;100441.81;5136486;27;20442;-63
2021/09/06 08:26:31;;;;;;;4.10;1.40;;;;;;;19.36;25.45;100428.81;5149360;27;20549;-64
2021/09/06 08:28:58;;;;;;;2.67;1.45;;;;;;;19.24;24.72;100431.00;5130275;27;20035;-66
2021/09/06 08:31:25;;;;;;;1.88;1.38;;;;;;;19.13;25.23;100413.16;5145293;27;20103;-64
2021/09/06 08:33:51;;;;;;;3.58;1.20;;;;;;;19.33;24.75;100440.88;5120437;27;20530;-63
2021/09/06 08:36:17;;;;;;;2.25;1.20;;;;;;;19.17;24.97;100430.84;5148821;27;20026;-64
2021/09/06 08:38:43;;;;;;;1.83;1.30;;;;;;;18.86;25.75;100433.22;5130725;27;20023;-63
2021/09/06 08:41:09;;;;;;;2.63;1.23;;;;;;;18.40;26.42;100438.91;5123750;27;20027;-64
2021/09/06 08:43:34;;;;;;;2.80;1.50;;;;;;;17.76;27.38;100426.41;5145726;27;20038;-70
2021/09/06 08:46:00;;;;;;;2.75;1.35;;;;;;;17.30;27.96;100431.91;5144888;27;20442;-65
2021/09/06 08:48:26;;;;;;;4.05;1.50;;;;;;;17.19;29.04;100436.50;5150030;27;20041;-64
2021/09/06 08:50:52;;;;;;;2.35;1.50;;;;;;;16.96;28.93;100429.78;5135256;27;20039;-66
2021/09/06 08:53:18;;;;;;;1.88;1.00;;;;;;;16.53;29.22;100397.84;5130450;27;20472;-64
2021/09/06 08:55:43;;;;;;;1.42;1.13;;;;;;;16.26;30.26;100406.75;5148461;27;20029;-64
2021/09/06 08:58:09;;;;;;;8.55;2.03;;;;;;;16.10;30.85;100407.38;5147192;27;20061;-65
2021/09/06 09:00:35;;;;;;;23.48;2.70;;;;;;;16.14;30.87;100416.88;5139398;27;20058;-71
2021/09/06 09:03:00;;;;;;;5.85;1.50;;;;;;;16.20;30.12;100409.03;5127286;27;20087;-65
2021/09/06 09:05:26;;;;;;;4.82;1.58;;;;;;;16.28;29.99;100415.56;5134925;27;20537;-65
2021/09/06 09:07:58;;;;;;;3.28;1.27;;;;;;;16.43;29.68;100413.22;5138192;27;20451;-64
2021/09/06 09:10:30;;;;;;;2.67;1.02;;;;;;;16.42;30.08;100407.00;5133079;27;20041;-64
2021/09/06 09:13:07;;;;;;;2.05;1.30;;;;;;;16.54;30.14;100398.69;5120068;27;20088;-67
2021/09/06 09:15:34;;;;;;;5.85;1.30;;;;;;;16.68;29.13;100405.44;5132185;27;20031;-64
2021/09/06 09:18:00;;;;;;;8.00;1.05;;;;;;;17.11;28.04;100408.50;5139083;27;20065;-65
2021/09/06 09:20:43;;;;;;;4.47;1.52;;;;;;;17.67;27.62;100400.28;5114481;27;20031;-65
2021/09/06 09:23:10;;;;;;;12.30;1.60;;;;;;;17.94;27.37;100413.69;5106027;27;20579;-64
2021/09/06 09:25:37;;;;;;;9.00;2.20;;;;;;;18.08;27.60;100414.13;5134825;27;20080;-65
2021/09/06 09:28:03;;;;;;;8.52;1.70;;;;;;;18.21;27.19;100422.72;5120740;27;20440;-67
2021/09/06 09:30:32;;;;;;;2.75;1.30;;;;;;;18.44;26.02;100414.03;5126972;27;20392;-65
2021/09/06 09:33:07;;;;;;;3.92;1.00;;;;;;;18.70;25.74;100413.16;5129999;27;20448;-65
2021/09/06 09:35:32;;;;;;;2.88;0.90;;;;;;;18.71;25.21;100406.72;5144527;27;20034;-65
2021/09/06 09:38:06;;;;;;;20.10;2.80;;;;;;;18.71;25.88;100409.41;5145238;27;20486;-65
2021/09/06 09:40:39;;;;;;;3.28;1.10;;;;;;;18.42;26.28;100415.19;5130460;27;20117;-65
2021/09/06 09:43:05;;;;;;;1.85;1.00;;;;;;;17.97;26.63;100403.53;5146934;27;20045;-64
2021/09/06 09:45:32;;;;;;;1.98;1.25;;;;;;;17.50;27.61;100402.81;5147068;27;20034;-64
2021/09/06 09:47:59;;;;;;;1.80;1.02;;;;;;;17.35;27.82;100413.34;5143157;27;20102;-64
2021/09/06 09:50:27;;;;;;;5.80;1.35;;;;;;;17.45;27.98;100407.84;5145645;27;20030;-65
2021/09/06 09:52:53;;;;;;;1.33;0.90;;;;;;;17.59;27.75;100403.75;5130193;27;20035;-65
2021/09/06 09:55:26;;;;;;;5.70;1.48;;;;;;;17.79;27.38;100405.28;5128397;27;20483;-65
2021/09/06 09:57:52;;;;;;;7.15;1.40;;;;;;;17.85;28.13;100395.69;5128809;27;20055;-71
2021/09/06 10:00:18;;;;;;;7.55;1.10;;;;;;;17.99;26.44;100398.81;5121720;27;20047;-64
2021/09/06 10:02:52;;;;;;;3.58;1.40;;;;;;;17.94;26.91;100400.16;5141122;27;20124;-68
2021/09/06 10:05:23;;;;;;;2.17;0.90;;;;;;;17.78;27.38;100410.84;5140589;27;20034;-72
2021/09/06 10:07:49;;;;;;;2.00;1.10;;;;;;;17.59;25.93;100399.16;5103884;27;20030;-71
2021/09/06 10:10:21;;;;;;;2.00;0.90;;;;;;;17.62;27.38;100409.72;5122072;27;20049;-71
2021/09/06 10:13:02;;;;;;;2.60;1.25;;;;;;;17.66;26.55;100402.13;5147862;27;20039;-70
2021/09/06 10:15:28;;;;;;;2.08;0.73;;;;;;;17.68;25.99;100412.81;5131785;27;20031;-64
2021/09/06 10:17:53;;;;;;;2.30;0.95;;;;;;;17.93;25.39;100395.72;5136410;27;20157;-72
2021/09/06 10:20:22;;;;;;;9.27;1.38;;;;;;;18.36;25.22;100400.44;5135372;27;20364;-70
2021/09/06 10:23:00;;;;;;;4.68;1.48;;;;;;;18.70;24.75;100396.88;5127332;28;20051;-71
2021/09/06 10:25:30;;;;;;;5.85;1.00;;;;;;;19.04;25.13;100393.28;5130235;27;20062;-69
2021/09/06 10:28:02;;;;;;;7.20;1.50;;;;;;;19.27;24.89;100389.94;5136963;27;20074;-65
2021/09/06 10:30:40;;;;;;;1.40;1.00;;;;;;;19.57;24.15;100390.31;5126424;27;20079;-65
2021/09/06 10:33:06;;;;;;;3.42;1.10;;;;;;;19.52;23.67;100389.97;5152420;27;20099;-65
2021/09/06 10:35:33;;;;;;;2.50;1.45;;;;;;;19.40;24.10;100391.31;5131396;27;20036;-64
2021/09/06 10:38:08;;;;;;;5.13;1.52;;;;;;;19.33;24.94;100392.00;5140000;27;20113;-65
2021/09/06 10:40:38;;;;;;;2.97;1.10;;;;;;;19.14;25.05;100397.72;5133518;27;20081;-65
2021/09/06 10:43:23;;;;;;;2.40;1.27;;;;;;;18.98;25.11;100376.81;5138905;27;20073;-65
2021/09/06 10:45:53;;;;;;;1.52;0.98;;;;;;;18.67;26.03;100393.63;5127986;27;20031;-67
2021/09/06 10:48:24;;;;;;;6.65;1.33;;;;;;;18.48;25.90;100392.88;5124669;27;20031;-65
2021/09/06 10:50:51;;;;;;;5.38;1.45;;;;;;;18.28;26.93;100379.56;5137882;27;20033;-65
2021/09/06 10:53:26;;;;;;;2.15;1.40;;;;;;;18.22;27.18;100394.59;5138311;27;20461;-66
2021/09/06 10:55:55;;;;;;;2.97;1.42;;;;;;;17.96;27.04;100385.59;5139611;27;20027;-65
2021/09/06 10:58:22;;;;;;;4.40;1.35;;;;;;;17.94;26.81;100392.03;5127665;27;20031;-65
2021/09/06 11:00:53;;;;;;;6.25;1.30;;;;;;;18.07;26.44;100388.06;5141396;27;20031;-67
2021/09/06 11:03:21;;;;;;;5.03;1.10;;;;;;;18.04;26.37;100396.50;5138291;27;20469;-67
2021/09/06 11:05:54;;;;;;;2.90;1.10;;;;;;;18.00;26.64;100389.69;5139411;27;20039;-63
2021/09/06 11:08:33;;;;;;;2.00;1.00;;;;;;;17.78;26.41;100391.88;5138118;27;20148;-65
2021/09/06 11:11:02;;;;;;;2.38;0.82;;;;;;;17.52;26.65;100387.28;5135724;27;20480;-67
2021/09/06 11:13:34;;;;;;;1.73;1.10;;;;;;;17.41;27.04;100390.22;5148027;27;20156;-64
2021/09/06 11:16:01;;;;;;;2.42;1.30;;;;;;;17.11;27.62;100384.16;5147894;27;20019;-65
2021/09/06 11:18:31;;;;;;;4.07;1.30;;;;;;;17.04;27.87;100387.47;5150785;27;20031;-63
2021/09/06 11:20:56;;;;;;;3.42;1.27;;;;;;;16.86;28.75;100376.59;5130853;27;20543;-63
2021/09/06 11:23:31;;;;;;;3.63;1.30;;;;;;;16.77;29.37;100374.81;5139468;27;20113;-62
2021/09/06 11:25:56;;;;;;;3.15;1.45;;;;;;;16.45;29.02;100371.56;5142646;27;20050;-63